createdAt,value
2022-11-22T00:01:23.395Z,95126.72
2022-11-22T00:03:51.750Z,95108.44
2022-11-22T00:06:20.112Z,95126.63
2022-11-22T00:08:48.423Z,95112.75
2022-11-22T00:11:16.813Z,95148.06
2022-11-22T00:13:45.132Z,95126.56
2022-11-22T00:16:14.816Z,95116.44
2022-11-22T00:18:43.408Z,95118.53
2022-11-22T00:21:11.767Z,95124.84
2022-11-22T00:23:40.472Z,95122.84
2022-11-22T00:26:12.072Z,95124.72
2022-11-22T00:28:40.820Z,95133.00
2022-11-22T00:31:09.167Z,95124.44
2022-11-22T00:33:38.856Z,95125.53
2022-11-22T00:36:07.351Z,95119.06
2022-11-22T00:38:35.671Z,95110.00
2022-11-22T00:41:04.045Z,95101.13
2022-11-22T00:43:32.670Z,95096.56
2022-11-22T00:46:01.462Z,95105.75
2022-11-22T00:48:30.090Z,95090.34
2022-11-22T00:51:00.049Z,95090.19
2022-11-22T00:53:28.359Z,95083.41
2022-11-22T00:55:56.679Z,95081.97
2022-11-22T00:58:24.980Z,95087.34
2022-11-22T01:00:56.497Z,95100.19
2022-11-22T01:03:26.022Z,95095.75
2022-11-22T01:05:54.619Z,95092.75
2022-11-22T01:08:24.635Z,95097.19
2022-11-22T01:10:58.407Z,95103.06
2022-11-22T01:13:28.092Z,95097.34
2022-11-22T01:16:01.404Z,95096.72
2022-11-22T01:18:30.390Z,95101.31
2022-11-22T01:20:59.378Z,95094.81
2022-11-22T01:23:29.107Z,95089.41
2022-11-22T01:25:57.604Z,95086.41
2022-11-22T01:28:26.188Z,95080.56
2022-11-22T01:30:55.552Z,95091.66
2022-11-22T01:33:23.932Z,95088.97
2022-11-22T01:35:54.224Z,95096.56
2022-11-22T01:38:22.846Z,95095.16
2022-11-22T01:40:52.923Z,95083.25
2022-11-22T01:43:23.518Z,95090.38
2022-11-22T01:45:54.939Z,95086.13
2022-11-22T01:48:37.731Z,95084.22
2022-11-22T01:51:15.798Z,95088.81
2022-11-22T01:53:44.690Z,95083.13
2022-11-22T01:56:18.434Z,95080.25
2022-11-22T01:58:51.589Z,95072.78
2022-11-22T02:01:20.521Z,95075.03
2022-11-22T02:03:52.931Z,95072.31
2022-11-22T02:06:22.667Z,95064.88
2022-11-22T02:09:00.083Z,95061.03
2022-11-22T02:11:34.079Z,95061.22
2022-11-22T02:14:04.707Z,95065.66
2022-11-22T02:16:35.563Z,95071.69
2022-11-22T02:19:05.072Z,95072.16
2022-11-22T02:21:34.094Z,95069.94
2022-11-22T02:24:13.317Z,95072.63
2022-11-22T02:26:43.156Z,95074.53
2022-11-22T02:29:12.887Z,95074.06
2022-11-22T02:31:44.530Z,95071.81
2022-11-22T02:34:14.423Z,95071.19
2022-11-22T02:36:48.559Z,95070.72
2022-11-22T02:39:23.715Z,95068.81
2022-11-22T02:41:54.990Z,95073.13
2022-11-22T02:44:24.387Z,95073.28
2022-11-22T02:46:56.509Z,95080.41
2022-11-22T02:49:26.680Z,95083.28
2022-11-22T02:51:55.323Z,95085.34
2022-11-22T02:54:23.669Z,95090.41
2022-11-22T02:56:53.251Z,95101.19
2022-11-22T02:59:21.843Z,95101.34
2022-11-22T03:01:50.677Z,95101.81
2022-11-22T03:04:25.533Z,95107.69
2022-11-22T03:06:56.122Z,95108.97
2022-11-22T03:09:25.512Z,95107.06
2022-11-22T03:11:55.750Z,95110.72
2022-11-22T03:14:24.222Z,95112.63
2022-11-22T03:16:53.451Z,95120.38
2022-11-22T03:19:22.286Z,95123.06
2022-11-22T03:21:51.346Z,95112.78
2022-11-22T03:24:20.484Z,95119.91
2022-11-22T03:26:50.167Z,95119.13
2022-11-22T03:29:20.233Z,95111.03
2022-11-22T03:31:48.634Z,95111.50
2022-11-22T03:34:17.158Z,95100.88
2022-11-22T03:36:45.975Z,95107.38
2022-11-22T03:39:14.286Z,95108.19
2022-11-22T03:41:42.879Z,95111.50
2022-11-22T03:44:11.337Z,95113.41
2022-11-22T03:46:41.125Z,95110.72
2022-11-22T03:49:09.402Z,95108.34
2022-11-22T03:51:37.682Z,95122.91
2022-11-22T03:54:06.581Z,95113.06
2022-11-22T03:56:34.875Z,95114.97
2022-11-22T03:59:03.287Z,95108.50
2022-11-22T04:01:31.988Z,95126.25
2022-11-22T04:04:01.741Z,95137.84
2022-11-22T04:06:30.055Z,95132.75
2022-11-22T04:08:58.405Z,95130.06
2022-11-22T04:11:26.878Z,95132.75
2022-11-22T04:14:12.883Z,95128.31
2022-11-22T04:16:41.417Z,95119.91
2022-11-22T04:19:11.364Z,95116.59
2022-11-22T04:21:38.726Z,95120.53
2022-11-22T04:24:27.546Z,95130.06
2022-11-22T04:26:56.823Z,95136.88
2022-11-22T04:29:25.917Z,95135.31
2022-11-22T04:32:11.763Z,95142.41
2022-11-22T04:34:41.544Z,95147.19
2022-11-22T04:37:09.909Z,95141.00
2022-11-22T04:39:38.431Z,95140.34
2022-11-22T04:42:24.683Z,95138.59
2022-11-22T04:44:53.069Z,95150.97
2022-11-22T04:47:38.615Z,95138.75
2022-11-22T04:50:24.134Z,95141.94
2022-11-22T04:52:55.144Z,95136.88
2022-11-22T04:55:24.017Z,95139.09
2022-11-22T04:57:58.868Z,95136.88
2022-11-22T05:00:29.025Z,95143.06
2022-11-22T05:02:57.654Z,95148.59
2022-11-22T05:05:28.350Z,95148.91
2022-11-22T05:07:56.949Z,95142.41
2022-11-22T05:10:27.074Z,95144.47
2022-11-22T05:12:57.187Z,95147.31
2022-11-22T05:15:25.638Z,95145.53
2022-11-22T05:17:54.256Z,95147.59
2022-11-22T05:20:22.562Z,95147.28
2022-11-22T05:23:09.867Z,95149.19
2022-11-22T05:25:38.228Z,95151.25
2022-11-22T05:28:06.783Z,95147.25
2022-11-22T05:30:35.169Z,95147.56
2022-11-22T05:33:03.577Z,95157.09
2022-11-22T05:35:32.227Z,95171.34
2022-11-22T05:38:02.253Z,95164.34
2022-11-22T05:40:30.590Z,95170.41
2022-11-22T05:42:59.477Z,95172.75
2022-11-22T05:45:28.630Z,95166.25
2022-11-22T05:47:57.872Z,95165.00
2022-11-22T05:50:26.545Z,95162.94
2022-11-22T05:53:03.899Z,95167.81
2022-11-22T05:55:32.599Z,95169.88
2022-11-22T05:58:02.182Z,95168.63
2022-11-22T06:00:31.763Z,95171.94
2022-11-22T06:03:05.032Z,95173.34
2022-11-22T06:05:34.311Z,95175.41
2022-11-22T06:08:04.409Z,95173.63
2022-11-22T06:10:34.368Z,95181.84
2022-11-22T06:13:02.720Z,95180.22
2022-11-22T06:15:31.804Z,95185.91
2022-11-22T06:18:00.045Z,95184.94
2022-11-22T06:20:28.564Z,95185.06
2022-11-22T06:22:59.956Z,95189.00
2022-11-22T06:25:29.810Z,95187.84
2022-11-22T06:28:00.688Z,95188.94
2022-11-22T06:30:29.002Z,95189.25
2022-11-22T06:32:59.054Z,95189.13
2022-11-22T06:35:27.357Z,95194.31
2022-11-22T06:38:00.524Z,95191.47
2022-11-22T06:40:30.601Z,95205.22
2022-11-22T06:42:58.885Z,95203.69
2022-11-22T06:45:27.275Z,95205.41
2022-11-22T06:47:55.878Z,95208.09
2022-11-22T06:50:24.150Z,95204.78
2022-11-22T06:52:52.826Z,95209.25
2022-11-22T06:55:48.567Z,95215.28
2022-11-22T06:58:10.948Z,95217.38
2022-11-22T07:00:39.411Z,95222.63
2022-11-22T07:03:07.713Z,95233.94
2022-11-22T07:05:36.377Z,95232.09
2022-11-22T07:08:11.978Z,95243.56
2022-11-22T07:10:42.243Z,95240.91
2022-11-22T07:13:13.398Z,95245.72
2022-11-22T07:15:42.106Z,95265.13
2022-11-22T07:18:10.807Z,95252.63
2022-11-22T07:20:39.132Z,95253.91
2022-11-22T07:23:07.417Z,95258.66
2022-11-22T07:25:35.776Z,95266.16
2022-11-22T07:28:04.058Z,95270.66
2022-11-22T07:30:33.704Z,95277.97
2022-11-22T07:33:01.951Z,95277.00
2022-11-22T07:35:30.859Z,95283.22
2022-11-22T07:37:59.228Z,95290.84
2022-11-22T07:40:27.649Z,95282.91
2022-11-22T07:42:58.625Z,95297.06
2022-11-22T07:45:27.749Z,95299.44
2022-11-22T07:48:00.490Z,95304.84
2022-11-22T07:50:29.667Z,95304.53
2022-11-22T07:52:58.308Z,95306.59
2022-11-22T07:55:27.740Z,95316.59
2022-11-22T07:57:59.376Z,95307.56
2022-11-22T08:00:29.581Z,95309.94
2022-11-22T08:02:59.476Z,95307.56
2022-11-22T08:05:28.275Z,95304.69
2022-11-22T08:07:56.675Z,95299.91
2022-11-22T08:10:25.017Z,95304.63
2022-11-22T08:12:53.307Z,95307.34
2022-11-22T08:15:22.065Z,95311.78
2022-11-22T08:17:50.332Z,95310.00
2022-11-22T08:20:20.148Z,95301.66
2022-11-22T08:22:48.531Z,95306.78
2022-11-22T08:25:17.020Z,95313.34
2022-11-22T08:27:45.427Z,95318.91
2022-11-22T08:30:14.670Z,95317.25
2022-11-22T08:32:43.354Z,95323.91
2022-11-22T08:35:11.722Z,95324.44
2022-11-22T08:37:41.408Z,95320.56
2022-11-22T08:40:11.262Z,95322.06
2022-11-22T08:42:39.768Z,95325.22
2022-11-22T08:45:09.382Z,95324.66
2022-11-22T08:47:38.932Z,95321.09
2022-11-22T08:50:09.479Z,95337.44
2022-11-22T08:52:38.143Z,95325.06
2022-11-22T08:55:09.748Z,95340.53
2022-11-22T08:57:38.102Z,95337.16
2022-11-22T09:00:08.047Z,95347.50
2022-11-22T09:02:36.427Z,95339.78
2022-11-22T09:05:05.348Z,95347.47
2022-11-22T09:10:23.709Z,95343.41
2022-11-22T09:12:52.509Z,95347.31
2022-11-22T09:15:20.897Z,95344.91
2022-11-22T09:17:49.241Z,95347.97
2022-11-22T09:20:18.245Z,95353.13
2022-11-22T09:22:46.583Z,95350.03
2022-11-22T09:25:14.950Z,95357.91
2022-11-22T09:27:44.665Z,95368.47
2022-11-22T09:30:13.840Z,95351.81
2022-11-22T09:32:44.817Z,95359.44
2022-11-22T09:35:13.158Z,95358.63
2022-11-22T09:37:41.477Z,95370.47
2022-11-22T09:40:11.879Z,95375.09
2022-11-22T09:43:06.451Z,95377.44
2022-11-22T09:46:09.522Z,95376.22
2022-11-22T09:49:01.125Z,95373.69
2022-11-22T09:51:38.451Z,95370.91
2022-11-22T09:54:12.050Z,95380.44
2022-11-22T09:56:42.348Z,95381.59
2022-11-22T09:59:20.825Z,95380.53
2022-11-22T10:01:56.354Z,95394.00
2022-11-22T10:04:30.816Z,95390.34
2022-11-22T10:07:02.791Z,95396.56
2022-11-22T10:09:41.077Z,95402.69
2022-11-22T10:12:18.776Z,95398.06
2022-11-22T10:14:59.840Z,95405.53
2022-11-22T10:17:42.830Z,95407.16
2022-11-22T10:20:17.329Z,95417.22
2022-11-22T10:22:46.184Z,95415.28
2022-11-22T10:25:21.520Z,95418.00
2022-11-22T10:27:59.065Z,95415.84
2022-11-22T10:30:40.489Z,95419.78
2022-11-22T10:33:19.426Z,95421.13
2022-11-22T10:36:08.609Z,95431.69
2022-11-22T10:38:54.779Z,95418.88
2022-11-22T10:41:45.543Z,95424.41
2022-11-22T10:44:25.727Z,95415.84
2022-11-22T10:47:12.028Z,95416.56
2022-11-22T10:49:57.204Z,95417.81
2022-11-22T10:52:38.923Z,95424.81
2022-11-22T10:55:24.531Z,95425.97
2022-11-22T10:58:07.537Z,95426.97
2022-11-22T11:00:41.894Z,95436.50
2022-11-22T11:03:31.144Z,95430.19
2022-11-22T11:06:24.307Z,95422.31
2022-11-22T11:09:55.010Z,95428.63
2022-11-22T11:11:53.726Z,95425.22
2022-11-22T11:14:32.309Z,95423.53
2022-11-22T11:17:02.611Z,95432.91
2022-11-22T11:19:40.177Z,95421.31
2022-11-22T11:22:42.826Z,95416.72
2022-11-22T11:25:31.831Z,95416.16
2022-11-22T11:28:06.701Z,95400.88
2022-11-22T11:30:41.708Z,95399.00
2022-11-22T11:33:26.895Z,95388.41
2022-11-22T11:36:04.439Z,95386.25
2022-11-22T11:38:39.005Z,95381.16
2022-11-22T11:41:29.011Z,95376.16
2022-11-22T11:43:59.377Z,95371.31
2022-11-22T11:46:30.031Z,95375.00
2022-11-22T11:49:12.611Z,95369.66
2022-11-22T11:51:45.016Z,95369.00
2022-11-22T11:54:19.836Z,95367.91
2022-11-22T11:56:51.923Z,95360.41
2022-11-22T11:59:23.102Z,95366.31
2022-11-22T12:02:03.618Z,95366.41
2022-11-22T12:04:36.908Z,95369.34
2022-11-22T12:07:20.405Z,95365.16
2022-11-22T12:09:51.620Z,95363.22
2022-11-22T12:12:43.486Z,95364.16
2022-11-22T12:15:22.257Z,95366.09
2022-11-22T12:18:01.402Z,95366.09
2022-11-22T12:20:43.408Z,95358.94
2022-11-22T12:23:25.544Z,95361.56
2022-11-22T12:25:57.486Z,95360.41
2022-11-22T12:28:29.045Z,95354.19
2022-11-22T12:31:04.509Z,95351.91
2022-11-22T12:33:37.538Z,95358.38
2022-11-22T12:36:13.906Z,95356.00
2022-11-22T12:38:48.688Z,95362.47
2022-11-22T12:41:21.558Z,95362.47
2022-11-22T12:43:55.934Z,95360.69
2022-11-22T12:46:30.652Z,95364.94
2022-11-22T12:49:06.034Z,95359.84
2022-11-22T12:51:46.380Z,95362.44
2022-11-22T12:54:22.699Z,95362.34
2022-11-22T12:56:57.439Z,95356.78
2022-11-22T12:59:37.248Z,95362.31
2022-11-22T13:02:20.731Z,95364.94
2022-11-22T13:04:59.379Z,95364.38
2022-11-22T13:07:49.684Z,95369.81
2022-11-22T13:10:33.007Z,95360.53
2022-11-22T13:13:05.708Z,95360.09
2022-11-22T13:15:40.639Z,95365.72
2022-11-22T13:18:12.649Z,95358.94
2022-11-22T13:20:50.991Z,95355.41
2022-11-22T13:23:50.045Z,95358.06
2022-11-22T13:26:31.592Z,95350.56
2022-11-22T13:29:20.380Z,95351.03
2022-11-22T13:32:17.179Z,95347.53
2022-11-22T13:35:08.665Z,95345.59
2022-11-22T13:37:42.350Z,95344.69
2022-11-22T13:40:24.440Z,95349.66
2022-11-22T13:43:26.095Z,95346.59
2022-11-22T13:45:58.620Z,95358.50
2022-11-22T13:49:08.520Z,95354.66
2022-11-22T13:51:56.397Z,95352.38
2022-11-22T13:54:59.056Z,95352.97
2022-11-22T13:57:37.191Z,95356.03
2022-11-22T14:00:41.658Z,95356.47
2022-11-22T14:03:38.083Z,95363.69
2022-11-22T14:06:31.108Z,95361.91
2022-11-22T14:09:41.452Z,95364.28
2022-11-22T14:12:34.501Z,95360.19
2022-11-22T14:15:40.531Z,95358.94
2022-11-22T14:18:40.731Z,95360.63
2022-11-22T14:21:18.652Z,95360.63
2022-11-22T14:24:07.296Z,95367.78
2022-11-22T14:26:52.049Z,95369.91
2022-11-22T14:29:56.939Z,95366.97
2022-11-22T14:32:27.513Z,95372.13
2022-11-22T14:35:29.598Z,95384.47
2022-11-22T14:38:28.969Z,95384.03
2022-11-22T14:41:31.989Z,95378.47
2022-11-22T14:44:03.328Z,95391.47
2022-11-22T14:46:53.361Z,95394.63
2022-11-22T14:49:36.011Z,95390.41
2022-11-22T14:52:21.066Z,95392.06
2022-11-22T14:54:55.397Z,95395.19
2022-11-22T14:57:26.745Z,95398.63
2022-11-22T15:00:17.881Z,95395.66
2022-11-22T15:03:30.324Z,95403.53
2022-11-22T15:09:23.873Z,95400.75
2022-11-22T15:10:04.109Z,95408.03
2022-11-22T15:13:06.898Z,95406.81
2022-11-22T15:57:31.163Z,95450.38
2022-11-22T16:00:01.050Z,95458.97
2022-11-22T16:02:33.113Z,95462.63
2022-11-22T16:06:05.265Z,95465.66
2022-11-22T16:07:53.456Z,95459.00
2022-11-22T16:10:33.020Z,95463.28
2022-11-22T16:13:15.217Z,95460.38
2022-11-22T16:15:43.695Z,95464.56
2022-11-22T16:18:18.806Z,95469.78
2022-11-22T16:21:01.553Z,95468.69
2022-11-22T16:23:33.236Z,95467.88
2022-11-22T16:26:19.242Z,95465.81
2022-11-22T16:28:51.547Z,95470.09
2022-11-22T16:31:24.590Z,95463.72
2022-11-22T16:33:55.075Z,95456.28
2022-11-22T16:36:25.376Z,95464.06
2022-11-22T16:38:54.007Z,95467.72
2022-11-22T16:41:25.610Z,95458.31
2022-11-22T16:43:57.687Z,95463.72
2022-11-22T16:46:26.341Z,95472.00
2022-11-22T16:48:56.014Z,95473.28
2022-11-22T16:51:28.470Z,95473.59
2022-11-22T16:54:06.340Z,95463.56
2022-11-22T16:56:35.036Z,95474.25
2022-11-22T16:59:11.100Z,95472.63
2022-11-22T17:01:43.468Z,95475.81
2022-11-22T17:04:22.831Z,95482.69
2022-11-22T17:06:51.801Z,95479.97
2022-11-22T17:09:21.004Z,95484.25
2022-11-22T17:11:50.410Z,95478.69
2022-11-22T17:14:20.787Z,95482.69
2022-11-22T17:16:49.449Z,95479.50
2022-11-22T17:19:51.590Z,95477.91
2022-11-22T17:22:07.064Z,95483.81
2022-11-22T17:24:36.080Z,95483.34
2022-11-22T17:27:04.739Z,95486.84
2022-11-22T17:29:49.975Z,95490.00
2022-11-22T17:32:19.254Z,95487.16
2022-11-22T17:34:47.585Z,95488.59
2022-11-22T17:37:15.974Z,95490.03
2022-11-22T17:39:44.634Z,95499.72
2022-11-22T17:42:15.223Z,95484.44
2022-11-22T17:44:45.249Z,95492.91
2022-11-22T17:47:13.577Z,95495.59
2022-11-22T17:49:42.005Z,95500.53
2022-11-22T17:52:10.388Z,95509.44
2022-11-22T17:54:38.901Z,95511.19
2022-11-22T17:57:07.186Z,95513.44
2022-11-22T17:59:35.596Z,95513.75
2022-11-22T18:02:05.330Z,95507.41
2022-11-22T18:04:33.895Z,95521.25
2022-11-22T18:07:02.832Z,95522.34
2022-11-22T18:09:31.597Z,95522.66
2022-11-22T18:12:00.121Z,95512.97
2022-11-22T18:14:30.611Z,95520.59
2022-11-22T18:17:00.423Z,95512.00
2022-11-22T18:19:30.441Z,95515.69
2022-11-22T18:21:59.000Z,95519.66
2022-11-22T18:24:27.306Z,95521.38
2022-11-22T18:26:55.909Z,95522.53
2022-11-22T18:29:42.514Z,95524.91
2022-11-22T18:32:12.352Z,95522.50
2022-11-22T18:34:42.615Z,95524.75
2022-11-22T18:37:10.971Z,95524.91
2022-11-22T18:39:40.525Z,95530.75
2022-11-22T18:42:13.517Z,95523.63
2022-11-22T18:44:42.356Z,95526.31
2022-11-22T18:47:10.875Z,95532.50
2022-11-22T18:49:39.210Z,95534.59
2022-11-22T18:52:10.782Z,95532.34
2022-11-22T18:54:42.532Z,95540.00
2022-11-22T18:57:10.944Z,95537.91
2022-11-22T18:59:39.793Z,95543.16
2022-11-22T19:02:08.345Z,95548.06
2022-11-22T19:04:36.644Z,95546.66
2022-11-22T19:07:05.696Z,95540.91
2022-11-22T19:09:35.424Z,95533.59
2022-11-22T19:12:03.855Z,95535.31
2022-11-22T19:14:32.461Z,95544.06
2022-11-22T19:17:01.430Z,95543.41
2022-11-22T19:19:32.293Z,95551.63
2022-11-22T19:22:01.513Z,95548.59
2022-11-22T19:24:30.746Z,95550.53
2022-11-22T19:27:01.086Z,95555.16
2022-11-22T19:29:29.996Z,95552.75
2022-11-22T19:31:58.943Z,95551.63
2022-11-22T19:34:29.434Z,95552.59
2022-11-22T19:37:00.218Z,95553.69
2022-11-22T19:39:29.545Z,95560.81
2022-11-22T19:41:58.375Z,95558.09
2022-11-22T19:44:28.214Z,95565.41
2022-11-22T19:46:56.599Z,95559.63
2022-11-22T19:49:25.452Z,95566.94
2022-11-22T19:51:53.890Z,95572.03
2022-11-22T19:54:22.276Z,95570.75
2022-11-22T19:56:50.747Z,95570.28
2022-11-22T19:59:19.116Z,95569.63
2022-11-22T20:01:48.911Z,95568.88
2022-11-22T20:04:17.384Z,95571.44
2022-11-22T20:06:49.965Z,95571.44
2022-11-22T20:09:18.741Z,95565.91
2022-11-22T20:11:47.069Z,95568.00
2022-11-22T20:14:15.809Z,95571.50
2022-11-22T20:16:44.508Z,95570.69
2022-11-22T20:19:15.360Z,95566.28
2022-11-22T20:21:43.986Z,95568.00
2022-11-22T20:24:14.158Z,95565.97
2022-11-22T20:26:43.803Z,95564.81
2022-11-22T20:29:15.185Z,95571.19
2022-11-22T20:31:43.826Z,95577.84
2022-11-22T20:34:15.089Z,95565.44
2022-11-22T20:36:43.811Z,95574.16
2022-11-22T20:39:12.329Z,95572.59
2022-11-22T20:41:41.378Z,95574.78
2022-11-22T20:44:13.759Z,95582.75
2022-11-22T20:46:42.595Z,95583.19
2022-11-22T20:49:11.446Z,95587.50
2022-11-22T20:51:42.282Z,95587.31
2022-11-22T20:54:12.045Z,95596.34
2022-11-22T20:56:41.028Z,95602.22
2022-11-22T20:59:09.672Z,95601.91
2022-11-22T21:01:38.347Z,95606.25
2022-11-22T21:04:07.551Z,95607.91
2022-11-22T21:06:36.002Z,95619.38
2022-11-22T21:09:05.787Z,95603.16
2022-11-22T21:11:35.138Z,95606.34
2022-11-22T21:14:03.872Z,95606.81
2022-11-22T21:16:32.696Z,95609.22
2022-11-22T21:19:04.966Z,95603.31
2022-11-22T21:21:36.501Z,95609.03
2022-11-22T21:24:08.537Z,95603.94
2022-11-22T21:26:37.055Z,95606.47
2022-11-22T21:29:15.978Z,95606.78
2022-11-22T21:31:45.162Z,95617.13
2022-11-22T21:34:13.878Z,95605.78
2022-11-22T21:36:42.233Z,95603.88
2022-11-22T21:39:11.859Z,95598.97
2022-11-22T21:41:41.029Z,95599.63
2022-11-22T21:44:11.078Z,95599.94
2022-11-22T21:46:40.051Z,95603.25
2022-11-22T21:49:08.904Z,95604.47
2022-11-22T21:51:37.609Z,95610.03
2022-11-22T21:54:06.605Z,95615.44
2022-11-22T21:56:36.993Z,95624.28
2022-11-22T21:59:05.864Z,95626.31
2022-11-22T22:01:35.225Z,95620.09
2022-11-22T22:04:04.437Z,95618.66
2022-11-22T22:06:33.141Z,95631.47
2022-11-22T22:09:01.943Z,95623.69
2022-11-22T22:11:30.274Z,95629.69
2022-11-22T22:13:59.979Z,95628.75
2022-11-22T22:16:28.323Z,95630.63
2022-11-22T22:18:56.645Z,95635.72
2022-11-22T22:21:25.265Z,95630.81
2022-11-22T22:23:54.457Z,95630.00
2022-11-22T22:26:22.739Z,95634.78
2022-11-22T22:28:53.061Z,95634.66
2022-11-22T22:31:26.912Z,95640.56
2022-11-22T22:33:57.644Z,95650.47
2022-11-22T22:36:28.374Z,95646.94
2022-11-22T22:38:56.784Z,95654.13
2022-11-22T22:41:25.089Z,95653.81
2022-11-22T22:43:53.724Z,95662.69
2022-11-22T22:46:25.794Z,95658.28
2022-11-22T22:48:56.203Z,95667.56
2022-11-22T22:51:32.375Z,95661.41
2022-11-22T22:54:02.630Z,95652.25
2022-11-22T22:56:32.334Z,95657.69
2022-11-22T22:59:01.616Z,95652.28
2022-11-22T23:01:32.596Z,95653.88
2022-11-22T23:04:02.967Z,95656.88
2022-11-22T23:06:34.274Z,95653.69
2022-11-22T23:09:04.111Z,95660.38
2022-11-22T23:11:53.003Z,95659.91
2022-11-22T23:14:24.691Z,95655.13
2022-11-22T23:16:57.925Z,95662.41
2022-11-22T23:19:28.070Z,95659.06
2022-11-22T23:21:57.315Z,95666.69
2022-11-22T23:24:25.687Z,95660.75
2022-11-22T23:26:54.005Z,95665.38
2022-11-22T23:29:22.683Z,95679.19
2022-11-22T23:31:51.298Z,95671.41
2022-11-22T23:34:21.026Z,95669.19
2022-11-22T23:36:49.739Z,95667.13
2022-11-22T23:39:18.060Z,95673.13
2022-11-22T23:41:46.445Z,95674.22
2022-11-22T23:44:15.141Z,95670.44
2022-11-22T23:46:43.784Z,95681.41
2022-11-22T23:49:13.131Z,95679.19
2022-11-22T23:51:42.874Z,95679.38
2022-11-22T23:54:12.053Z,95678.75
2022-11-22T23:56:40.335Z,95685.75
2022-11-22T23:59:08.786Z,95685.59
